Terminal Aerodrome Forecast
Issued by NWS

Home | Current Version | Previous Version | Text Only | Print | Product List | Glossary On
Versions: 1 2 3 4 5 6 7 8 9 10 11 12 13 14 15 16 17 18 19 20 21
996
FTUS41 KCAR 091741
TAFPQI
TAF
KPQI 091741Z 0918/1018 01008KT 4SM -SN OVC015
     FM092000 02007KT 2SM -SN OVC015
     FM100000 02006KT 1 1/2SM -SN OVC010
     FM100600 VRB03KT 3SM -SN SCT015 OVC025
     FM101100 VRB03KT P6SM -SN SCT025 OVC035=

USA.gov is the U.S. government's official web portal to all federal, state and local government web resources and services.